Oak Grove, Oregon
Current Conditions -  °F | °C
As of 2:53 AM on Saturday 25 Oct 2014 (Local Time) from KPDX Reporting Station
Broken Clouds Broken Clouds  
Wind Chill:   Ceiling: 25000
Heat Index:   Visibility: 7mi
Dew Point:   Wind: 6mph
Humidity: 100%   Direction: 290°WNW
Pressure: 29.58"   Gusts: NA
Location:  45.42°N, 122.64°W
Report Text: KPDX 250953Z 29005KT 7SM FEW002 BKN250 09/09 A2958 RMK AO2 SLP017 T00940094
Loading
Personal Weather Stations






























Interactive Weather Map
Tropical Storm Tracking
New forecast layout! Learn more

10-Day Weather Forecast

Advertisements
Track Severe Weather on mobile